createdAt,value
2019-05-21T00:00:39.757Z,19.77
2019-05-21T00:03:09.109Z,20.26
2019-05-21T00:05:38.456Z,20.63
2019-05-21T00:08:07.774Z,20.43
2019-05-21T00:10:37.070Z,20.27
2019-05-21T00:13:06.396Z,19.69
2019-05-21T00:15:35.692Z,19.42
2019-05-21T00:18:05.226Z,19.73
2019-05-21T00:20:34.771Z,19.62
2019-05-21T00:23:04.021Z,19.89
2019-05-21T00:25:33.303Z,19.93
2019-05-21T00:28:39.715Z,19.85
2019-05-21T00:31:44.969Z,19.73
2019-05-21T00:34:50.694Z,20.41
2019-05-21T00:37:55.779Z,20.76
2019-05-21T00:41:00.959Z,20.79
2019-05-21T00:43:46.371Z,20.22
2019-05-21T00:46:15.658Z,20.47
2019-05-21T00:48:45.184Z,19.77
2019-05-21T00:51:14.474Z,20.08
2019-05-21T00:53:43.777Z,19.91
2019-05-21T00:56:13.091Z,20.18
2019-05-21T00:58:42.352Z,20.31
2019-05-21T01:01:11.853Z,20.38
2019-05-21T01:03:43.280Z,20.08
2019-05-21T01:06:12.182Z,20.09
2019-05-21T01:08:41.408Z,19.96
2019-05-21T01:11:10.674Z,19.75
2019-05-21T01:13:39.968Z,20.15
2019-05-21T01:16:09.296Z,20.03
2019-05-21T01:18:38.558Z,19.77
2019-05-21T01:21:07.940Z,19.58
2019-05-21T01:23:37.196Z,20.29
2019-05-21T01:26:06.464Z,20.05
2019-05-21T01:28:35.702Z,19.81
2019-05-21T01:31:04.991Z,20.47
2019-05-21T01:33:34.311Z,20.22
2019-05-21T01:36:04.671Z,19.97
2019-05-21T01:38:33.914Z,20.32
2019-05-21T01:41:03.189Z,20.60
2019-05-21T01:43:32.431Z,20.57
2019-05-21T01:46:01.711Z,20.16
2019-05-21T01:48:30.973Z,20.16
2019-05-21T01:51:00.297Z,19.48
2019-05-21T01:53:29.563Z,19.33
2019-05-21T01:55:58.852Z,19.73
2019-05-21T01:58:28.402Z,19.19
2019-05-21T02:00:57.843Z,19.93
2019-05-21T02:03:27.114Z,20.22
2019-05-21T02:05:56.581Z,20.20
2019-05-21T02:08:25.839Z,20.14
2019-05-21T02:10:55.129Z,20.22
2019-05-21T02:13:24.402Z,19.79
2019-05-21T02:15:53.699Z,20.18
2019-05-21T02:18:23.101Z,19.98
2019-05-21T02:20:52.380Z,19.14
2019-05-21T02:23:21.686Z,20.16
2019-05-21T02:25:50.923Z,19.80
2019-05-21T02:28:22.616Z,20.61
2019-05-21T02:30:56.040Z,19.98
2019-05-21T02:33:22.251Z,19.81
2019-05-21T02:35:54.694Z,19.76
2019-05-21T02:38:22.518Z,19.29
2019-05-21T02:40:51.812Z,19.78
2019-05-21T02:43:21.089Z,19.29
2019-05-21T02:45:50.348Z,19.68
2019-05-21T02:48:19.646Z,19.70
2019-05-21T02:50:48.892Z,20.07
2019-05-21T02:53:18.177Z,18.98
2019-05-21T02:55:47.455Z,19.86
2019-05-21T02:58:16.744Z,19.99
2019-05-21T03:01:08.086Z,19.55
2019-05-21T03:03:37.440Z,19.81
2019-05-21T03:06:13.888Z,19.22
2019-05-21T03:08:37.707Z,19.36
2019-05-21T03:11:06.961Z,19.80
2019-05-21T03:13:36.255Z,19.61
2019-05-21T03:16:05.540Z,19.09
2019-05-21T03:18:34.853Z,19.35
2019-05-21T03:21:04.101Z,19.88
2019-05-21T03:23:33.414Z,19.83
2019-05-21T03:26:02.682Z,19.95
2019-05-21T03:28:31.953Z,19.92
2019-05-21T03:31:01.291Z,19.59
2019-05-21T03:33:30.637Z,19.79
2019-05-21T03:35:59.901Z,20.62
2019-05-21T03:38:29.188Z,19.84
2019-05-21T03:40:58.496Z,20.17
2019-05-21T03:43:27.781Z,19.49
2019-05-21T03:45:57.112Z,19.58
2019-05-21T03:48:26.405Z,19.92
2019-05-21T03:50:55.677Z,19.62
2019-05-21T03:53:24.959Z,19.53
2019-05-21T03:55:54.239Z,19.72
2019-05-21T03:58:23.520Z,19.75
2019-05-21T04:00:52.822Z,19.45
2019-05-21T04:03:22.833Z,19.67
2019-05-21T04:05:52.085Z,19.50
2019-05-21T04:08:21.459Z,20.48
2019-05-21T04:10:50.808Z,19.83
2019-05-21T04:13:20.099Z,19.74
2019-05-21T04:16:01.752Z,19.25
2019-05-21T04:18:39.207Z,19.90
2019-05-21T04:21:08.601Z,20.04
2019-05-21T04:23:37.862Z,19.64
2019-05-21T04:26:07.172Z,20.29
2019-05-21T04:28:36.483Z,19.51
2019-05-21T04:31:05.815Z,20.19
2019-05-21T04:33:35.120Z,19.82
2019-05-21T04:36:04.660Z,20.48
2019-05-21T04:38:34.015Z,20.09
2019-05-21T04:41:03.355Z,20.26
2019-05-21T04:43:32.671Z,20.14
2019-05-21T04:46:02.026Z,20.27
2019-05-21T04:48:31.331Z,19.62
2019-05-21T04:51:00.625Z,19.64
2019-05-21T04:53:29.881Z,19.95
2019-05-21T04:55:59.193Z,20.15
2019-05-21T04:58:28.490Z,20.12
2019-05-21T05:00:57.732Z,19.94
2019-05-21T05:03:27.030Z,19.13
2019-05-21T05:05:56.302Z,19.52
2019-05-21T05:08:25.673Z,20.00
2019-05-21T05:10:54.963Z,20.07
2019-05-21T05:13:24.287Z,19.92
2019-05-21T05:15:53.551Z,19.79
2019-05-21T05:18:22.948Z,19.45
2019-05-21T05:20:52.268Z,19.35
2019-05-21T05:23:21.682Z,19.11
2019-05-21T05:25:51.010Z,19.29
2019-05-21T05:28:20.319Z,19.53
2019-05-21T05:30:49.646Z,19.30
2019-05-21T05:33:18.941Z,19.08
2019-05-21T05:35:49.100Z,19.76
2019-05-21T05:38:26.012Z,20.11
2019-05-21T05:40:55.362Z,19.56
2019-05-21T05:43:24.724Z,19.55
2019-05-21T05:45:54.040Z,19.04
2019-05-21T05:48:23.564Z,19.38
2019-05-21T05:50:54.769Z,19.17
2019-05-21T05:53:24.111Z,20.12
2019-05-21T05:55:53.513Z,20.07
2019-05-21T05:58:22.821Z,20.24
2019-05-21T06:00:52.146Z,19.56
2019-05-21T06:03:21.485Z,18.77
2019-05-21T06:05:50.793Z,19.28
2019-05-21T06:08:20.105Z,19.10
2019-05-21T06:10:49.497Z,19.12
2019-05-21T06:13:18.811Z,19.11
2019-05-21T06:15:48.082Z,19.60
2019-05-21T06:18:17.457Z,19.67
2019-05-21T06:20:46.792Z,19.68
2019-05-21T06:23:16.160Z,19.20
2019-05-21T06:25:45.493Z,19.28
2019-05-21T06:28:14.817Z,19.65
2019-05-21T06:30:44.130Z,19.12
2019-05-21T06:33:13.425Z,19.33
2019-05-21T06:35:42.747Z,19.43
2019-05-21T06:38:17.717Z,19.69
2019-05-21T06:40:43.052Z,20.04
2019-05-21T06:43:12.358Z,19.03
2019-05-21T06:45:42.029Z,19.59
2019-05-21T06:48:11.276Z,19.80
2019-05-21T06:50:40.569Z,19.47
2019-05-21T06:53:09.883Z,19.20
2019-05-21T06:55:39.218Z,19.72
2019-05-21T06:58:08.566Z,19.69
2019-05-21T07:00:37.864Z,19.92
2019-05-21T07:03:07.170Z,19.38
2019-05-21T07:05:36.714Z,19.93
2019-05-21T07:08:05.998Z,19.29
2019-05-21T07:10:35.378Z,19.30
2019-05-21T07:13:04.762Z,18.98
2019-05-21T07:15:34.038Z,19.46
2019-05-21T07:18:03.356Z,20.07
2019-05-21T07:20:32.704Z,19.68
2019-05-21T07:23:02.391Z,20.06
2019-05-21T07:25:31.700Z,19.93
2019-05-21T07:28:00.976Z,19.59
2019-05-21T07:30:30.370Z,19.33
2019-05-21T07:32:59.719Z,19.82
2019-05-21T07:35:29.050Z,19.41
2019-05-21T07:37:58.408Z,19.34
2019-05-21T07:40:27.770Z,19.64
2019-05-21T07:42:57.127Z,19.49
2019-05-21T07:45:26.407Z,19.25
2019-05-21T07:47:55.743Z,19.71
2019-05-21T07:50:25.036Z,19.17
2019-05-21T07:52:54.480Z,19.03
2019-05-21T07:55:23.881Z,19.99
2019-05-21T07:57:53.265Z,19.36
2019-05-21T08:00:25.554Z,18.96
2019-05-21T08:02:54.958Z,19.77
2019-05-21T08:05:24.259Z,19.51
2019-05-21T08:07:53.621Z,19.21
2019-05-21T08:10:22.871Z,19.26
2019-05-21T08:12:52.205Z,20.21
2019-05-21T08:15:21.569Z,19.38
2019-05-21T08:17:50.929Z,19.60
2019-05-21T08:20:24.823Z,19.10
2019-05-21T08:22:54.116Z,19.60
2019-05-21T08:25:23.457Z,20.08
2019-05-21T08:27:52.943Z,19.90
2019-05-21T08:30:22.574Z,20.24
2019-05-21T08:32:51.905Z,20.40
2019-05-21T08:35:21.299Z,19.52
2019-05-21T08:37:50.593Z,20.22
2019-05-21T08:40:20.107Z,19.53
2019-05-21T08:42:49.471Z,19.77
2019-05-21T08:45:18.864Z,19.70
2019-05-21T08:47:48.191Z,19.36
2019-05-21T08:50:17.605Z,19.78
2019-05-21T08:52:46.928Z,20.41
2019-05-21T08:55:16.260Z,21.20
2019-05-21T08:57:45.549Z,20.34
2019-05-21T09:00:17.356Z,20.41
2019-05-21T09:02:46.618Z,20.20
2019-05-21T09:05:16.169Z,20.41
2019-05-21T09:07:45.573Z,19.34
2019-05-21T09:10:15.199Z,19.16
2019-05-21T09:12:44.510Z,19.57
2019-05-21T09:15:14.343Z,19.88
2019-05-21T09:17:43.657Z,19.79
2019-05-21T09:20:13.693Z,19.94
2019-05-21T09:22:43.041Z,19.84
2019-05-21T09:25:12.499Z,19.93
2019-05-21T09:27:41.829Z,20.06
2019-05-21T09:30:13.049Z,19.27
2019-05-21T09:32:42.370Z,19.94
2019-05-21T09:35:12.006Z,19.72
2019-05-21T09:37:41.261Z,20.12
2019-05-21T09:40:11.619Z,20.27
2019-05-21T09:42:40.916Z,20.25
2019-05-21T09:45:11.164Z,19.74
2019-05-21T09:47:40.648Z,20.13
2019-05-21T09:50:11.896Z,20.47
2019-05-21T09:52:42.692Z,19.90
2019-05-21T09:55:12.322Z,20.72
2019-05-21T09:57:48.534Z,20.21
2019-05-21T10:00:37.429Z,20.14
2019-05-21T10:03:09.674Z,20.26
2019-05-21T10:05:38.995Z,20.52
2019-05-21T10:08:08.334Z,20.39
2019-05-21T10:10:37.675Z,20.21
2019-05-21T10:13:06.984Z,20.33
2019-05-21T10:15:36.369Z,20.73
2019-05-21T10:18:05.725Z,19.72
2019-05-21T10:20:35.122Z,19.61
2019-05-21T10:23:04.448Z,19.96
2019-05-21T10:25:33.790Z,19.48
2019-05-21T10:28:03.146Z,20.34
2019-05-21T10:30:32.449Z,19.83
2019-05-21T10:33:01.772Z,19.50
2019-05-21T10:35:31.117Z,19.18
2019-05-21T10:38:00.410Z,19.47
2019-05-21T10:40:29.701Z,19.95
2019-05-21T10:42:59.030Z,19.90
2019-05-21T10:45:28.339Z,19.50
2019-05-21T10:47:57.658Z,19.36
2019-05-21T10:50:26.968Z,20.34
2019-05-21T10:52:56.278Z,20.23
2019-05-21T10:55:25.609Z,19.60
2019-05-21T10:57:54.918Z,20.17
2019-05-21T11:00:25.310Z,20.45
2019-05-21T11:02:59.469Z,19.85
2019-05-21T11:05:43.585Z,20.51
2019-05-21T11:08:23.618Z,20.42
2019-05-21T11:10:43.870Z,20.28
2019-05-21T11:13:13.198Z,20.14
2019-05-21T11:15:42.483Z,20.10
2019-05-21T11:18:12.263Z,20.29
2019-05-21T11:20:41.732Z,19.94
2019-05-21T11:23:11.085Z,20.25
2019-05-21T11:25:40.394Z,20.37
2019-05-21T11:28:09.802Z,19.89
2019-05-21T11:30:39.134Z,20.09
2019-05-21T11:33:08.496Z,19.85
2019-05-21T11:35:37.820Z,20.14
2019-05-21T11:38:07.176Z,20.00
2019-05-21T11:40:36.519Z,20.30
2019-05-21T11:43:05.847Z,20.39
2019-05-21T11:45:35.311Z,20.85
2019-05-21T11:48:04.632Z,21.46
2019-05-21T11:50:34.021Z,21.00
2019-05-21T11:53:03.341Z,20.25
2019-05-21T11:55:32.661Z,20.41
2019-05-21T11:58:01.942Z,20.27
2019-05-21T12:00:31.386Z,19.91
2019-05-21T12:03:00.758Z,20.47
2019-05-21T12:05:30.154Z,19.75
2019-05-21T12:07:59.467Z,20.10
2019-05-21T12:10:28.810Z,20.74
2019-05-21T12:12:58.253Z,20.38
2019-05-21T12:15:27.599Z,20.20
2019-05-21T12:17:56.962Z,20.97
2019-05-21T12:20:36.063Z,21.23
2019-05-21T12:22:57.314Z,21.37
2019-05-21T12:25:26.681Z,21.34
2019-05-21T12:27:55.993Z,20.52
2019-05-21T12:30:25.790Z,21.28
2019-05-21T12:32:55.108Z,21.00
2019-05-21T12:35:24.460Z,21.00
2019-05-21T12:37:53.790Z,20.40
2019-05-21T12:40:23.342Z,20.79
2019-05-21T12:42:52.681Z,20.68
2019-05-21T12:45:22.007Z,21.18
2019-05-21T12:47:51.347Z,20.80
2019-05-21T12:50:20.960Z,21.01
2019-05-21T12:52:50.354Z,20.16
2019-05-21T12:55:19.663Z,20.80
2019-05-21T12:57:48.958Z,21.67
2019-05-21T13:00:18.970Z,21.38
2019-05-21T13:02:48.268Z,21.04
2019-05-21T13:05:17.859Z,20.54
2019-05-21T13:07:47.169Z,20.80
2019-05-21T13:10:16.515Z,20.22
2019-05-21T13:12:45.981Z,20.46
2019-05-21T13:15:15.441Z,20.73
2019-05-21T13:17:44.909Z,21.05
2019-05-21T13:20:14.500Z,20.55
2019-05-21T13:22:43.972Z,21.33
2019-05-21T13:25:13.341Z,20.66
2019-05-21T13:27:42.717Z,21.40
2019-05-21T13:30:12.795Z,20.97
2019-05-21T13:32:43.954Z,20.79
2019-05-21T13:35:13.415Z,20.95
2019-05-21T13:37:42.882Z,21.05
2019-05-21T13:40:13.922Z,21.07
2019-05-21T13:42:43.249Z,22.14
2019-05-21T13:45:12.864Z,20.61
2019-05-21T13:47:42.226Z,20.45
2019-05-21T13:50:12.094Z,20.42
2019-05-21T13:52:41.554Z,21.35
2019-05-21T13:55:11.553Z,20.51
2019-05-21T13:57:40.945Z,21.37
2019-05-21T14:00:14.177Z,21.17
2019-05-21T14:02:43.462Z,21.29
2019-05-21T14:05:13.026Z,20.72
2019-05-21T14:07:42.466Z,20.97
2019-05-21T14:10:15.408Z,21.22
2019-05-21T14:12:43.075Z,21.05
2019-05-21T14:15:12.528Z,21.04
2019-05-21T14:17:41.858Z,20.61
2019-05-21T14:20:13.504Z,21.14
2019-05-21T14:22:42.931Z,21.20
2019-05-21T14:25:15.156Z,21.52
2019-05-21T14:27:45.289Z,20.00
2019-05-21T14:30:14.868Z,21.24
2019-05-21T14:32:48.051Z,20.56
2019-05-21T14:35:17.451Z,20.00
2019-05-21T14:37:46.770Z,20.64
2019-05-21T14:40:30.989Z,20.50
2019-05-21T14:42:59.146Z,21.35
2019-05-21T14:45:19.289Z,21.50
2019-05-21T14:47:48.687Z,21.42
2019-05-21T14:50:18.381Z,21.53
2019-05-21T14:52:51.984Z,21.34
2019-05-21T14:55:18.828Z,21.18
2019-05-21T14:57:48.155Z,21.08
2019-05-21T15:00:24.067Z,21.34
2019-05-21T15:02:53.407Z,21.09
2019-05-21T15:05:22.815Z,20.83
2019-05-21T15:07:53.619Z,20.68
2019-05-21T15:10:24.569Z,21.39
2019-05-21T15:12:53.909Z,21.01
2019-05-21T15:15:24.735Z,21.09
2019-05-21T15:17:54.154Z,20.98
2019-05-21T15:20:55.383Z,21.20
2019-05-21T15:23:24.799Z,21.27
2019-05-21T15:25:54.187Z,21.24
2019-05-21T15:28:23.573Z,20.40
2019-05-21T15:30:52.979Z,21.63
2019-05-21T15:33:23.532Z,20.88
2019-05-21T15:35:54.548Z,21.00
2019-05-21T15:38:23.893Z,20.85
2019-05-21T15:41:09.617Z,20.94
2019-05-21T15:43:24.437Z,21.55
2019-05-21T15:45:53.835Z,21.44
2019-05-21T15:48:26.389Z,21.00
2019-05-21T15:50:54.330Z,20.91
2019-05-21T15:53:23.768Z,20.66
2019-05-21T15:55:53.191Z,21.22
2019-05-21T15:58:26.546Z,21.11
2019-05-21T16:00:57.031Z,21.44
2019-05-21T16:03:25.412Z,21.56
2019-05-21T16:05:55.055Z,21.11
2019-05-21T16:08:24.410Z,21.26
2019-05-21T16:10:58.470Z,20.81
2019-05-21T16:13:29.184Z,21.32
2019-05-21T16:15:58.726Z,20.43
2019-05-21T16:18:28.151Z,20.38
2019-05-21T16:20:57.730Z,20.74
2019-05-21T16:23:28.866Z,20.41
2019-05-21T16:25:58.382Z,20.86
2019-05-21T16:28:27.864Z,20.46
2019-05-21T16:30:57.314Z,20.37
2019-05-21T16:33:26.770Z,20.45
2019-05-21T16:35:56.175Z,20.38
2019-05-21T16:38:25.629Z,19.95
2019-05-21T16:40:54.987Z,20.37
2019-05-21T16:43:24.413Z,20.42
2019-05-21T16:45:53.802Z,20.09
2019-05-21T16:48:27.714Z,20.05
2019-05-21T16:50:57.240Z,20.59
2019-05-21T16:53:26.683Z,20.73
2019-05-21T16:55:56.122Z,20.40
2019-05-21T16:58:28.040Z,20.75
2019-05-21T17:01:23.495Z,20.75
2019-05-21T17:04:00.050Z,20.08
2019-05-21T17:08:23.252Z,20.86
2019-05-21T17:09:21.112Z,20.24
2019-05-21T17:12:04.949Z,20.72
2019-05-21T17:15:21.917Z,20.82
2019-05-21T17:17:07.861Z,20.52
2019-05-21T17:19:36.989Z,19.85
2019-05-21T17:22:06.380Z,20.19
2019-05-21T17:24:37.049Z,20.22
2019-05-21T17:27:37.915Z,20.04
2019-05-21T17:30:13.409Z,19.89
2019-05-21T17:32:42.868Z,20.25
2019-05-21T17:35:14.260Z,20.15
2019-05-21T17:37:43.758Z,20.37
2019-05-21T17:40:13.533Z,20.49
2019-05-21T17:42:42.969Z,20.86
2019-05-21T17:45:13.498Z,20.66
2019-05-21T17:47:42.962Z,20.21
2019-05-21T17:50:13.152Z,20.63
2019-05-21T17:52:42.534Z,20.09
2019-05-21T17:55:12.321Z,19.59
2019-05-21T17:57:42.516Z,20.17
2019-05-21T18:00:15.701Z,20.44
2019-05-21T18:02:45.539Z,20.84
2019-05-21T18:05:17.446Z,20.76
2019-05-21T18:07:47.010Z,20.24
2019-05-21T18:10:19.231Z,20.01
2019-05-21T18:12:50.746Z,20.63
2019-05-21T18:15:27.613Z,20.98
2019-05-21T18:17:53.989Z,20.96
2019-05-21T18:20:26.248Z,20.97
2019-05-21T18:22:55.739Z,19.78
2019-05-21T18:25:26.967Z,20.45
2019-05-21T18:27:56.592Z,20.85
2019-05-21T18:30:26.128Z,20.98
2019-05-21T18:32:55.683Z,20.56
2019-05-21T18:35:28.793Z,20.45
2019-05-21T18:37:58.525Z,19.87
2019-05-21T18:40:29.125Z,20.08
2019-05-21T18:42:58.560Z,19.76
2019-05-21T18:45:28.184Z,20.25
2019-05-21T18:47:57.673Z,19.79
2019-05-21T18:50:35.569Z,19.88
2019-05-21T18:52:58.472Z,19.60
2019-05-21T18:55:27.853Z,20.70
2019-05-21T18:57:57.380Z,19.98
2019-05-21T19:00:27.300Z,20.42
2019-05-21T19:02:56.882Z,20.54
2019-05-21T19:05:26.309Z,20.03
2019-05-21T19:07:55.861Z,19.71
2019-05-21T19:10:25.294Z,19.69
2019-05-21T19:12:54.826Z,19.55
2019-05-21T19:15:24.296Z,20.02
2019-05-21T19:18:21.427Z,20.10
2019-05-21T19:20:51.488Z,20.49
2019-05-21T19:23:21.121Z,20.09
2019-05-21T19:25:56.262Z,20.38
2019-05-21T19:28:29.376Z,19.72
2019-05-21T19:30:58.832Z,20.06
2019-05-21T19:33:28.291Z,19.66
2019-05-21T19:35:57.747Z,19.22
2019-05-21T19:38:27.097Z,19.07
2019-05-21T19:40:58.059Z,19.99
2019-05-21T19:43:27.444Z,19.95
2019-05-21T19:45:56.832Z,20.36
2019-05-21T19:48:26.225Z,19.98
2019-05-21T19:50:55.649Z,19.89
2019-05-21T19:53:25.017Z,19.78
2019-05-21T19:55:54.517Z,19.72
2019-05-21T19:58:23.817Z,18.61
2019-05-21T20:00:55.026Z,19.47
2019-05-21T20:03:24.818Z,19.17
2019-05-21T20:05:54.313Z,19.36
2019-05-21T20:08:23.766Z,19.04
2019-05-21T20:10:53.363Z,19.19
2019-05-21T20:13:32.224Z,19.58
2019-05-21T20:15:54.961Z,19.48
2019-05-21T20:18:24.538Z,19.65
2019-05-21T20:20:54.885Z,19.67
2019-05-21T20:23:24.821Z,19.42
2019-05-21T20:25:56.812Z,19.95
2019-05-21T20:28:26.649Z,19.98
2019-05-21T20:30:56.656Z,19.39
2019-05-21T20:33:26.129Z,19.42
2019-05-21T20:35:55.699Z,19.73
2019-05-21T20:38:31.667Z,19.64
2019-05-21T20:41:01.148Z,18.74
2019-05-21T20:43:30.818Z,18.52
2019-05-21T20:46:00.713Z,19.40
2019-05-21T20:48:32.231Z,19.09
2019-05-21T20:51:02.190Z,19.22
2019-05-21T20:53:31.620Z,18.99
2019-05-21T20:56:01.350Z,19.42
2019-05-21T20:58:31.268Z,19.53
2019-05-21T21:01:02.161Z,19.36
2019-05-21T21:03:32.707Z,19.43
2019-05-21T21:06:02.711Z,19.32
2019-05-21T21:08:34.119Z,19.45
2019-05-21T21:11:04.984Z,19.74
2019-05-21T21:13:34.325Z,19.49
2019-05-21T21:16:04.085Z,18.83
2019-05-21T21:18:34.266Z,19.19
2019-05-21T21:21:03.613Z,19.77
2019-05-21T21:23:34.810Z,18.70
2019-05-21T21:26:04.614Z,19.06
2019-05-21T21:28:33.983Z,19.25
2019-05-21T21:31:03.792Z,19.39
2019-05-21T21:33:33.842Z,19.75
2019-05-21T21:36:03.293Z,19.32
2019-05-21T21:38:34.395Z,18.61
2019-05-21T21:41:04.968Z,19.21
2019-05-21T21:43:34.357Z,18.84
2019-05-21T21:46:03.752Z,19.43
2019-05-21T21:48:33.125Z,18.87
2019-05-21T21:51:04.360Z,18.89
2019-05-21T21:53:34.395Z,19.52
2019-05-21T21:56:03.721Z,19.35
2019-05-21T21:58:33.098Z,18.77
2019-05-21T22:01:25.658Z,18.95
2019-05-21T22:03:59.445Z,19.08
2019-05-21T22:06:31.636Z,19.67
2019-05-21T22:09:01.959Z,19.19
2019-05-21T22:11:32.265Z,18.86
2019-05-21T22:14:03.344Z,19.14
2019-05-21T22:16:33.608Z,19.51
2019-05-21T22:19:03.055Z,18.78
2019-05-21T22:21:33.759Z,18.87
2019-05-21T22:24:03.291Z,19.23
2019-05-21T22:26:32.631Z,19.63
2019-05-21T22:29:02.149Z,19.47
2019-05-21T22:31:31.577Z,20.06
2019-05-21T22:34:00.918Z,19.78
2019-05-21T22:36:30.593Z,19.47
2019-05-21T22:38:59.931Z,19.47
2019-05-21T22:41:29.286Z,18.82
2019-05-21T22:43:58.628Z,19.60
2019-05-21T22:46:28.139Z,18.89
2019-05-21T22:48:57.459Z,19.46
2019-05-21T22:51:26.791Z,19.68
2019-05-21T22:53:56.108Z,19.35
2019-05-21T22:56:25.555Z,19.02
2019-05-21T22:58:54.848Z,19.47
2019-05-21T23:01:25.962Z,19.91
2019-05-21T23:03:57.120Z,19.68
2019-05-21T23:06:26.420Z,19.09
2019-05-21T23:08:56.054Z,19.38
2019-05-21T23:11:25.545Z,19.25
2019-05-21T23:13:54.899Z,19.41
2019-05-21T23:16:24.228Z,19.13
2019-05-21T23:18:54.168Z,19.01
2019-05-21T23:21:23.484Z,19.26
2019-05-21T23:23:53.624Z,19.07
2019-05-21T23:26:23.885Z,18.94
2019-05-21T23:28:54.355Z,19.17
2019-05-21T23:31:24.286Z,19.47
2019-05-21T23:33:56.326Z,19.65
2019-05-21T23:36:26.188Z,19.00
2019-05-21T23:38:57.033Z,19.63
2019-05-21T23:41:26.771Z,19.40
2019-05-21T23:43:56.183Z,19.06
2019-05-21T23:46:25.827Z,19.02
2019-05-21T23:48:55.168Z,18.85
2019-05-21T23:51:24.566Z,19.31
2019-05-21T23:53:53.910Z,19.12
2019-05-21T23:56:23.226Z,19.23
2019-05-21T23:58:52.697Z,19.26
